sensor_id;sensor_type;location;lat;lon;timestamp;pressure;altitude;pressure_sealevel;temperature;humidity
27613;BME280;15036;48.094;-1.690;2023-05-09T00:02:08;101111.31;;;21.19;62.19
27613;BME280;15036;48.094;-1.690;2023-05-09T00:04:34;101110.44;;;20.97;62.84
27613;BME280;15036;48.094;-1.690;2023-05-09T00:07:01;101104.03;;;21.13;62.22
27613;BME280;15036;48.094;-1.690;2023-05-09T00:09:26;101099.09;;;21.20;62.17
27613;BME280;15036;48.094;-1.690;2023-05-09T00:11:52;101104.94;;;21.45;61.18
27613;BME280;15036;48.094;-1.690;2023-05-09T00:14:17;101096.41;;;21.03;62.47
27613;BME280;15036;48.094;-1.690;2023-05-09T00:16:44;101092.69;;;20.76;63.57
27613;BME280;15036;48.094;-1.690;2023-05-09T00:19:09;101092.81;;;20.86;63.37
27613;BME280;15036;48.094;-1.690;2023-05-09T00:21:35;101082.50;;;20.60;63.71
27613;BME280;15036;48.094;-1.690;2023-05-09T00:24:00;101078.72;;;21.09;62.53
27613;BME280;15036;48.094;-1.690;2023-05-09T00:26:26;101069.13;;;20.79;63.92
27613;BME280;15036;48.094;-1.690;2023-05-09T00:28:52;101066.63;;;20.99;62.92
27613;BME280;15036;48.094;-1.690;2023-05-09T00:31:17;101062.72;;;21.00;62.84
27613;BME280;15036;48.094;-1.690;2023-05-09T00:33:42;101070.38;;;21.09;62.62
27613;BME280;15036;48.094;-1.690;2023-05-09T00:36:08;101062.72;;;21.00;63.09
27613;BME280;15036;48.094;-1.690;2023-05-09T00:38:33;101056.88;;;20.74;63.21
27613;BME280;15036;48.094;-1.690;2023-05-09T00:40:58;101054.19;;;21.01;63.17
27613;BME280;15036;48.094;-1.690;2023-05-09T00:43:24;101046.19;;;21.05;62.94
27613;BME280;15036;48.094;-1.690;2023-05-09T00:45:50;101045.72;;;20.91;63.33
27613;BME280;15036;48.094;-1.690;2023-05-09T00:48:15;101040.78;;;20.98;63.17
27613;BME280;15036;48.094;-1.690;2023-05-09T00:50:41;101032.63;;;21.35;61.86
27613;BME280;15036;48.094;-1.690;2023-05-09T00:53:08;101032.28;;;20.83;63.59
27613;BME280;15036;48.094;-1.690;2023-05-09T00:55:35;101027.31;;;21.07;62.97
27613;BME280;15036;48.094;-1.690;2023-05-09T00:58:02;101023.13;;;21.04;62.94
27613;BME280;15036;48.094;-1.690;2023-05-09T01:00:27;101021.88;;;21.17;62.73
27613;BME280;15036;48.094;-1.690;2023-05-09T01:02:54;101014.69;;;21.21;62.59
27613;BME280;15036;48.094;-1.690;2023-05-09T01:05:21;101009.50;;;21.03;63.09
27613;BME280;15036;48.094;-1.690;2023-05-09T01:08:08;101010.97;;;21.10;62.87
27613;BME280;15036;48.094;-1.690;2023-05-09T01:10:53;101003.19;;;21.07;62.95
27613;BME280;15036;48.094;-1.690;2023-05-09T01:13:43;100999.56;;;21.07;63.05
27613;BME280;15036;48.094;-1.690;2023-05-09T01:16:52;101002.50;;;21.00;63.28
27613;BME280;15036;48.094;-1.690;2023-05-09T01:19:51;101002.34;;;21.07;63.10
27613;BME280;15036;48.094;-1.690;2023-05-09T01:22:19;100994.38;;;21.15;62.78
27613;BME280;15036;48.094;-1.690;2023-05-09T01:27:38;100985.19;;;21.15;62.89
27613;BME280;15036;48.094;-1.690;2023-05-09T01:30:09;100986.88;;;20.94;63.68
27613;BME280;15036;48.094;-1.690;2023-05-09T01:32:36;100987.78;;;21.00;63.48
27613;BME280;15036;48.094;-1.690;2023-05-09T01:35:04;100981.78;;;21.08;62.77
27613;BME280;15036;48.094;-1.690;2023-05-09T01:37:33;100982.72;;;21.18;62.99
27613;BME280;15036;48.094;-1.690;2023-05-09T01:40:03;100978.81;;;21.14;63.29
27613;BME280;15036;48.094;-1.690;2023-05-09T01:42:40;100979.84;;;21.08;63.08
27613;BME280;15036;48.094;-1.690;2023-05-09T01:45:07;100977.91;;;21.09;63.39
27613;BME280;15036;48.094;-1.690;2023-05-09T01:47:34;100973.66;;;21.28;62.49
27613;BME280;15036;48.094;-1.690;2023-05-09T01:50:02;100968.91;;;21.23;62.85
27613;BME280;15036;48.094;-1.690;2023-05-09T01:52:28;100968.22;;;21.11;63.18
27613;BME280;15036;48.094;-1.690;2023-05-09T01:54:55;100971.03;;;20.90;63.88
27613;BME280;15036;48.094;-1.690;2023-05-09T01:57:21;100961.13;;;20.99;63.66
27613;BME280;15036;48.094;-1.690;2023-05-09T01:59:48;100965.09;;;21.03;63.46
27613;BME280;15036;48.094;-1.690;2023-05-09T02:02:13;100961.25;;;21.09;63.67
27613;BME280;15036;48.094;-1.690;2023-05-09T02:04:40;100956.84;;;21.13;62.96
27613;BME280;15036;48.094;-1.690;2023-05-09T02:07:07;100947.88;;;21.06;63.21
27613;BME280;15036;48.094;-1.690;2023-05-09T02:09:32;100947.56;;;21.29;62.67
27613;BME280;15036;48.094;-1.690;2023-05-09T02:11:57;100934.91;;;21.11;63.23
27613;BME280;15036;48.094;-1.690;2023-05-09T02:14:23;100927.16;;;21.13;63.17
27613;BME280;15036;48.094;-1.690;2023-05-09T02:16:48;100929.47;;;21.26;62.67
27613;BME280;15036;48.094;-1.690;2023-05-09T02:19:14;100932.63;;;21.35;62.43
27613;BME280;15036;48.094;-1.690;2023-05-09T02:21:41;100933.75;;;21.39;62.50
27613;BME280;15036;48.094;-1.690;2023-05-09T02:24:06;100935.78;;;21.48;62.27
27613;BME280;15036;48.094;-1.690;2023-05-09T02:26:32;100937.53;;;21.28;62.90
27613;BME280;15036;48.094;-1.690;2023-05-09T02:28:59;100939.03;;;21.40;62.45
27613;BME280;15036;48.094;-1.690;2023-05-09T02:31:27;100935.34;;;21.30;62.87
27613;BME280;15036;48.094;-1.690;2023-05-09T02:33:54;100931.00;;;21.44;62.46
27613;BME280;15036;48.094;-1.690;2023-05-09T02:36:21;100932.16;;;21.48;62.38
27613;BME280;15036;48.094;-1.690;2023-05-09T02:38:47;100927.38;;;21.43;62.40
27613;BME280;15036;48.094;-1.690;2023-05-09T02:41:13;100926.31;;;21.44;62.18
27613;BME280;15036;48.094;-1.690;2023-05-09T02:43:39;100929.84;;;21.35;62.55
27613;BME280;15036;48.094;-1.690;2023-05-09T02:46:05;100930.94;;;21.34;62.90
27613;BME280;15036;48.094;-1.690;2023-05-09T02:48:30;100925.09;;;21.35;62.61
27613;BME280;15036;48.094;-1.690;2023-05-09T02:50:56;100924.00;;;21.36;62.44
27613;BME280;15036;48.094;-1.690;2023-05-09T02:53:22;100917.66;;;21.41;62.46
27613;BME280;15036;48.094;-1.690;2023-05-09T02:55:48;100913.19;;;21.35;62.67
27613;BME280;15036;48.094;-1.690;2023-05-09T02:58:13;100915.47;;;21.48;62.12
27613;BME280;15036;48.094;-1.690;2023-05-09T03:00:38;100918.56;;;21.51;62.04
27613;BME280;15036;48.094;-1.690;2023-05-09T03:03:04;100920.63;;;21.66;61.66
27613;BME280;15036;48.094;-1.690;2023-05-09T03:05:29;100921.69;;;21.65;62.15
27613;BME280;15036;48.094;-1.690;2023-05-09T03:07:55;100917.47;;;21.52;62.29
27613;BME280;15036;48.094;-1.690;2023-05-09T03:10:20;100913.28;;;21.50;62.62
27613;BME280;15036;48.094;-1.690;2023-05-09T03:12:46;100912.72;;;21.48;62.65
27613;BME280;15036;48.094;-1.690;2023-05-09T03:15:11;100912.75;;;21.53;62.28
27613;BME280;15036;48.094;-1.690;2023-05-09T03:17:37;100917.56;;;21.68;61.75
27613;BME280;15036;48.094;-1.690;2023-05-09T03:20:02;100919.91;;;21.44;62.59
27613;BME280;15036;48.094;-1.690;2023-05-09T03:22:30;100919.81;;;21.02;63.64
27613;BME280;15036;48.094;-1.690;2023-05-09T03:24:55;100911.56;;;21.44;62.56
27613;BME280;15036;48.094;-1.690;2023-05-09T03:27:21;100907.94;;;21.07;63.31
27613;BME280;15036;48.094;-1.690;2023-05-09T03:29:46;100898.16;;;21.36;62.61
27613;BME280;15036;48.094;-1.690;2023-05-09T03:32:11;100901.00;;;21.41;62.61
27613;BME280;15036;48.094;-1.690;2023-05-09T03:34:37;100900.31;;;21.61;62.31
27613;BME280;15036;48.094;-1.690;2023-05-09T03:37:02;100903.22;;;21.39;62.99
27613;BME280;15036;48.094;-1.690;2023-05-09T03:39:27;100896.53;;;21.40;62.83
27613;BME280;15036;48.094;-1.690;2023-05-09T03:41:53;100898.81;;;21.11;63.51
27613;BME280;15036;48.094;-1.690;2023-05-09T03:44:18;100899.03;;;21.41;62.63
27613;BME280;15036;48.094;-1.690;2023-05-09T03:46:43;100894.03;;;20.80;64.47
27613;BME280;15036;48.094;-1.690;2023-05-09T03:49:09;100891.38;;;20.90;64.07
27613;BME280;15036;48.094;-1.690;2023-05-09T03:51:34;100890.63;;;21.00;63.96
27613;BME280;15036;48.094;-1.690;2023-05-09T03:54:00;100892.19;;;20.86;64.62
27613;BME280;15036;48.094;-1.690;2023-05-09T03:56:27;100903.44;;;20.47;65.74
27613;BME280;15036;48.094;-1.690;2023-05-09T03:58:52;100905.44;;;20.30;66.28
27613;BME280;15036;48.094;-1.690;2023-05-09T04:01:18;100900.38;;;19.29;69.47
27613;BME280;15036;48.094;-1.690;2023-05-09T04:03:44;100901.78;;;19.32;69.68
27613;BME280;15036;48.094;-1.690;2023-05-09T04:06:09;100919.97;;;18.50;72.17
27613;BME280;15036;48.094;-1.690;2023-05-09T04:08:35;100910.00;;;19.27;69.64
27613;BME280;15036;48.094;-1.690;2023-05-09T04:11:00;100904.97;;;18.90;70.05
27613;BME280;15036;48.094;-1.690;2023-05-09T04:13:26;100906.66;;;19.41;68.52
27613;BME280;15036;48.094;-1.690;2023-05-09T04:15:52;100909.31;;;19.69;67.21
27613;BME280;15036;48.094;-1.690;2023-05-09T04:18:17;100898.63;;;19.78;66.94
27613;BME280;15036;48.094;-1.690;2023-05-09T04:20:42;100889.13;;;20.12;65.36
27613;BME280;15036;48.094;-1.690;2023-05-09T04:23:08;100888.84;;;20.14;65.39
27613;BME280;15036;48.094;-1.690;2023-05-09T04:25:33;100886.66;;;19.94;65.69
27613;BME280;15036;48.094;-1.690;2023-05-09T04:27:59;100892.06;;;20.06;65.46
27613;BME280;15036;48.094;-1.690;2023-05-09T04:30:25;100886.34;;;20.60;63.75
27613;BME280;15036;48.094;-1.690;2023-05-09T04:32:54;100894.41;;;19.54;66.92
27613;BME280;15036;48.094;-1.690;2023-05-09T04:35:20;100890.31;;;19.78;66.40
27613;BME280;15036;48.094;-1.690;2023-05-09T04:37:46;100894.31;;;19.87;65.81
27613;BME280;15036;48.094;-1.690;2023-05-09T04:40:12;100899.66;;;20.15;65.13
27613;BME280;15036;48.094;-1.690;2023-05-09T04:42:37;100900.94;;;19.48;67.46
27613;BME280;15036;48.094;-1.690;2023-05-09T04:45:03;100888.31;;;19.95;65.69
27613;BME280;15036;48.094;-1.690;2023-05-09T04:47:29;100888.28;;;19.90;65.56
27613;BME280;15036;48.094;-1.690;2023-05-09T04:49:55;100895.19;;;19.71;66.50
27613;BME280;15036;48.094;-1.690;2023-05-09T04:52:20;100890.59;;;19.98;65.15
27613;BME280;15036;48.094;-1.690;2023-05-09T04:54:46;100888.72;;;19.82;65.70
27613;BME280;15036;48.094;-1.690;2023-05-09T04:57:11;100886.56;;;19.89;64.73
27613;BME280;15036;48.094;-1.690;2023-05-09T04:59:36;100882.84;;;19.78;65.05
27613;BME280;15036;48.094;-1.690;2023-05-09T05:02:02;100885.94;;;19.82;65.14
27613;BME280;15036;48.094;-1.690;2023-05-09T05:04:27;100893.44;;;19.65;65.82
27613;BME280;15036;48.094;-1.690;2023-05-09T05:06:53;100879.03;;;19.63;65.27
27613;BME280;15036;48.094;-1.690;2023-05-09T05:09:18;100884.47;;;20.18;63.82
27613;BME280;15036;48.094;-1.690;2023-05-09T05:11:44;100878.66;;;19.76;65.32
27613;BME280;15036;48.094;-1.690;2023-05-09T05:14:09;100874.91;;;19.87;64.68
27613;BME280;15036;48.094;-1.690;2023-05-09T05:16:35;100884.19;;;19.38;66.02
27613;BME280;15036;48.094;-1.690;2023-05-09T05:19:00;100878.66;;;19.76;65.30
27613;BME280;15036;48.094;-1.690;2023-05-09T05:21:25;100883.03;;;20.15;63.70
27613;BME280;15036;48.094;-1.690;2023-05-09T05:23:51;100877.94;;;20.07;64.06
27613;BME280;15036;48.094;-1.690;2023-05-09T05:26:16;100885.22;;;19.70;64.70
27613;BME280;15036;48.094;-1.690;2023-05-09T05:28:41;100899.09;;;20.13;63.62
27613;BME280;15036;48.094;-1.690;2023-05-09T05:31:07;100897.53;;;20.01;63.97
27613;BME280;15036;48.094;-1.690;2023-05-09T05:33:32;100888.28;;;20.12;63.75
27613;BME280;15036;48.094;-1.690;2023-05-09T05:35:57;100886.25;;;20.24;63.18
27613;BME280;15036;48.094;-1.690;2023-05-09T05:38:23;100887.38;;;20.06;63.43
27613;BME280;15036;48.094;-1.690;2023-05-09T05:40:48;100893.22;;;19.50;65.67
27613;BME280;15036;48.094;-1.690;2023-05-09T05:43:15;100893.59;;;19.97;64.14
27613;BME280;15036;48.094;-1.690;2023-05-09T05:45:40;100900.88;;;20.19;63.54
27613;BME280;15036;48.094;-1.690;2023-05-09T05:48:05;100896.06;;;20.58;62.26
27613;BME280;15036;48.094;-1.690;2023-05-09T05:50:31;100892.72;;;20.56;62.31
27613;BME280;15036;48.094;-1.690;2023-05-09T05:52:56;100879.72;;;20.61;61.92
27613;BME280;15036;48.094;-1.690;2023-05-09T05:55:21;100887.78;;;20.63;62.09
27613;BME280;15036;48.094;-1.690;2023-05-09T05:57:47;100888.97;;;20.45;62.50
27613;BME280;15036;48.094;-1.690;2023-05-09T06:00:13;100897.53;;;20.65;61.92
27613;BME280;15036;48.094;-1.690;2023-05-09T06:02:42;100890.38;;;19.83;63.85
27613;BME280;15036;48.094;-1.690;2023-05-09T06:05:09;100889.00;;;20.02;63.45
27613;BME280;15036;48.094;-1.690;2023-05-09T06:07:35;100879.63;;;20.51;62.42
27613;BME280;15036;48.094;-1.690;2023-05-09T06:10:00;100879.00;;;20.76;61.83
27613;BME280;15036;48.094;-1.690;2023-05-09T06:12:25;100888.81;;;20.84;61.80
27613;BME280;15036;48.094;-1.690;2023-05-09T06:14:51;100888.38;;;20.70;62.09
27613;BME280;15036;48.094;-1.690;2023-05-09T06:17:16;100883.16;;;20.47;62.46
27613;BME280;15036;48.094;-1.690;2023-05-09T06:19:41;100891.78;;;20.24;63.61
27613;BME280;15036;48.094;-1.690;2023-05-09T06:22:07;100902.34;;;20.27;63.76
27613;BME280;15036;48.094;-1.690;2023-05-09T06:24:32;100893.94;;;20.00;64.13
27613;BME280;15036;48.094;-1.690;2023-05-09T06:26:57;100887.50;;;19.95;63.87
27613;BME280;15036;48.094;-1.690;2023-05-09T06:29:23;100881.28;;;20.26;63.11
27613;BME280;15036;48.094;-1.690;2023-05-09T06:31:48;100877.03;;;19.58;64.36
27613;BME280;15036;48.094;-1.690;2023-05-09T06:34:13;100880.66;;;20.45;62.22
27613;BME280;15036;48.094;-1.690;2023-05-09T06:36:39;100871.81;;;19.83;63.75
27613;BME280;15036;48.094;-1.690;2023-05-09T06:39:04;100878.03;;;20.34;62.59
27613;BME280;15036;48.094;-1.690;2023-05-09T06:41:30;100890.91;;;20.02;63.98
27613;BME280;15036;48.094;-1.690;2023-05-09T06:43:55;100886.50;;;20.22;63.64
27613;BME280;15036;48.094;-1.690;2023-05-09T06:46:21;100882.19;;;20.36;62.89
27613;BME280;15036;48.094;-1.690;2023-05-09T06:48:46;100881.53;;;20.24;62.92
27613;BME280;15036;48.094;-1.690;2023-05-09T06:51:11;100883.34;;;20.40;63.15
27613;BME280;15036;48.094;-1.690;2023-05-09T06:53:37;100880.16;;;19.67;64.54
27613;BME280;15036;48.094;-1.690;2023-05-09T06:56:03;100877.53;;;19.77;64.62
27613;BME280;15036;48.094;-1.690;2023-05-09T06:58:28;100880.47;;;20.09;63.92
27613;BME280;15036;48.094;-1.690;2023-05-09T07:00:54;100873.56;;;20.33;63.12
27613;BME280;15036;48.094;-1.690;2023-05-09T07:03:20;100864.38;;;20.27;63.20
27613;BME280;15036;48.094;-1.690;2023-05-09T07:05:45;100859.41;;;20.56;62.34
27613;BME280;15036;48.094;-1.690;2023-05-09T07:08:12;100871.22;;;20.46;62.15
27613;BME280;15036;48.094;-1.690;2023-05-09T07:10:37;100875.94;;;20.03;63.58
27613;BME280;15036;48.094;-1.690;2023-05-09T07:13:03;100874.47;;;20.17;63.56
27613;BME280;15036;48.094;-1.690;2023-05-09T07:15:28;100868.59;;;20.35;62.69
27613;BME280;15036;48.094;-1.690;2023-05-09T07:17:54;100883.88;;;20.16;63.36
27613;BME280;15036;48.094;-1.690;2023-05-09T07:20:20;100879.72;;;20.61;62.42
27613;BME280;15036;48.094;-1.690;2023-05-09T07:22:46;100873.53;;;20.54;62.39
27613;BME280;15036;48.094;-1.690;2023-05-09T07:25:12;100877.53;;;19.77;64.67
27613;BME280;15036;48.094;-1.690;2023-05-09T07:27:39;100884.44;;;20.61;62.76
27613;BME280;15036;48.094;-1.690;2023-05-09T07:30:05;100884.78;;;20.00;64.75
27613;BME280;15036;48.094;-1.690;2023-05-09T07:32:32;100886.63;;;19.51;65.93
27613;BME280;15036;48.094;-1.690;2023-05-09T07:34:57;100890.06;;;20.01;64.56
27613;BME280;15036;48.094;-1.690;2023-05-09T07:37:23;100893.75;;;19.47;65.51
27613;BME280;15036;48.094;-1.690;2023-05-09T07:39:48;100894.41;;;19.37;66.20
27613;BME280;15036;48.094;-1.690;2023-05-09T07:42:14;100891.41;;;19.39;66.50
27613;BME280;15036;48.094;-1.690;2023-05-09T07:44:40;100883.00;;;19.50;65.86
27613;BME280;15036;48.094;-1.690;2023-05-09T07:47:05;100882.59;;;19.80;65.92
27613;BME280;15036;48.094;-1.690;2023-05-09T07:49:33;100887.94;;;19.86;65.13
27613;BME280;15036;48.094;-1.690;2023-05-09T07:51:58;100881.91;;;20.33;63.79
27613;BME280;15036;48.094;-1.690;2023-05-09T07:54:25;100881.38;;;20.62;63.04
27613;BME280;15036;48.094;-1.690;2023-05-09T07:56:51;100873.09;;;19.54;65.35
27613;BME280;15036;48.094;-1.690;2023-05-09T07:59:16;100876.28;;;20.06;65.58
27613;BME280;15036;48.094;-1.690;2023-05-09T08:01:42;100881.31;;;20.31;64.18
27613;BME280;15036;48.094;-1.690;2023-05-09T08:04:08;100883.41;;;19.59;66.14
27613;BME280;15036;48.094;-1.690;2023-05-09T08:06:34;100884.63;;;19.68;65.03
27613;BME280;15036;48.094;-1.690;2023-05-09T08:09:00;100886.47;;;19.41;66.43
27613;BME280;15036;48.094;-1.690;2023-05-09T08:11:26;100890.03;;;19.58;65.62
27613;BME280;15036;48.094;-1.690;2023-05-09T08:13:52;100892.38;;;18.99;66.41
27613;BME280;15036;48.094;-1.690;2023-05-09T08:16:19;100894.31;;;19.87;64.34
27613;BME280;15036;48.094;-1.690;2023-05-09T08:18:45;100890.91;;;19.80;64.54
27613;BME280;15036;48.094;-1.690;2023-05-09T08:21:10;100912.97;;;19.75;65.95
27613;BME280;15036;48.094;-1.690;2023-05-09T08:23:35;100899.78;;;19.44;66.56
27613;BME280;15036;48.094;-1.690;2023-05-09T08:26:01;100900.25;;;19.74;65.40
27613;BME280;15036;48.094;-1.690;2023-05-09T08:28:27;100896.41;;;20.18;64.43
27613;BME280;15036;48.094;-1.690;2023-05-09T08:30:54;100896.63;;;20.60;62.85
27613;BME280;15036;48.094;-1.690;2023-05-09T08:33:20;100900.66;;;20.04;64.78
27613;BME280;15036;48.094;-1.690;2023-05-09T08:35:50;100895.09;;;21.01;62.15
27613;BME280;15036;48.094;-1.690;2023-05-09T08:38:16;100899.19;;;20.40;62.85
27613;BME280;15036;48.094;-1.690;2023-05-09T08:40:41;100891.50;;;20.25;63.51
27613;BME280;15036;48.094;-1.690;2023-05-09T08:43:10;100891.47;;;20.47;63.09
27613;BME280;15036;48.094;-1.690;2023-05-09T08:45:45;100881.38;;;20.62;61.48
27613;BME280;15036;48.094;-1.690;2023-05-09T08:48:14;100884.97;;;21.53;59.07
27613;BME280;15036;48.094;-1.690;2023-05-09T08:50:40;100887.84;;;21.73;58.60
27613;BME280;15036;48.094;-1.690;2023-05-09T08:53:06;100890.78;;;20.35;63.07
27613;BME280;15036;48.094;-1.690;2023-05-09T08:55:32;100877.13;;;20.50;62.27
27613;BME280;15036;48.094;-1.690;2023-05-09T08:57:57;100877.53;;;21.64;58.50
27613;BME280;15036;48.094;-1.690;2023-05-09T09:00:24;100880.28;;;22.05;57.50
27613;BME280;15036;48.094;-1.690;2023-05-09T09:02:50;100891.19;;;20.22;62.71
27613;BME280;15036;48.094;-1.690;2023-05-09T09:05:17;100885.47;;;20.82;61.01
27613;BME280;15036;48.094;-1.690;2023-05-09T09:07:43;100885.94;;;20.47;62.14
27613;BME280;15036;48.094;-1.690;2023-05-09T09:10:09;100895.44;;;20.78;60.96
27613;BME280;15036;48.094;-1.690;2023-05-09T09:12:35;100881.13;;;20.96;60.02
27613;BME280;15036;48.094;-1.690;2023-05-09T09:15:04;100888.63;;;20.63;60.78
27613;BME280;15036;48.094;-1.690;2023-05-09T09:17:36;100891.06;;;21.92;57.99
27613;BME280;15036;48.094;-1.690;2023-05-09T09:20:09;100890.88;;;22.08;56.42
27613;BME280;15036;48.094;-1.690;2023-05-09T09:22:36;100889.72;;;20.89;57.80
27613;BME280;15036;48.094;-1.690;2023-05-09T09:25:05;100889.53;;;21.74;57.14
27613;BME280;15036;48.094;-1.690;2023-05-09T09:27:31;100877.63;;;22.46;56.06
27613;BME280;15036;48.094;-1.690;2023-05-09T09:30:05;100884.78;;;22.16;54.85
27613;BME280;15036;48.094;-1.690;2023-05-09T09:32:32;100879.66;;;21.93;55.40
27613;BME280;15036;48.094;-1.690;2023-05-09T09:35:06;100879.50;;;21.68;54.68
27613;BME280;15036;48.094;-1.690;2023-05-09T09:37:34;100888.66;;;21.27;56.25
27613;BME280;15036;48.094;-1.690;2023-05-09T09:40:01;100886.22;;;21.77;55.85
27613;BME280;15036;48.094;-1.690;2023-05-09T09:42:28;100892.88;;;21.76;55.59
27613;BME280;15036;48.094;-1.690;2023-05-09T09:45:11;100885.81;;;21.17;57.23
27613;BME280;15036;48.094;-1.690;2023-05-09T09:47:37;100890.75;;;21.46;55.99
27613;BME280;15036;48.094;-1.690;2023-05-09T09:50:10;100890.84;;;22.03;54.98
27613;BME280;15036;48.094;-1.690;2023-05-09T09:52:46;100889.22;;;22.17;55.50
27613;BME280;15036;48.094;-1.690;2023-05-09T09:55:13;100885.78;;;21.95;55.43
27613;BME280;15036;48.094;-1.690;2023-05-09T09:57:38;100888.91;;;22.04;54.76
27613;BME280;15036;48.094;-1.690;2023-05-09T10:00:06;100888.50;;;22.47;54.65
27613;BME280;15036;48.094;-1.690;2023-05-09T10:02:32;100875.81;;;23.01;52.98
27613;BME280;15036;48.094;-1.690;2023-05-09T10:05:07;100875.75;;;22.66;53.43
27613;BME280;15036;48.094;-1.690;2023-05-09T10:10:00;100880.53;;;22.96;51.38
27613;BME280;15036;48.094;-1.690;2023-05-09T10:12:33;100890.34;;;22.16;52.77
27613;BME280;15036;48.094;-1.690;2023-05-09T10:15:02;100885.47;;;21.45;54.25
27613;BME280;15036;48.094;-1.690;2023-05-09T10:17:28;100883.94;;;21.69;54.16
27613;BME280;15036;48.094;-1.690;2023-05-09T10:19:55;100875.28;;;22.07;52.67
27613;BME280;15036;48.094;-1.690;2023-05-09T10:22:22;100869.38;;;22.66;52.28
27613;BME280;15036;48.094;-1.690;2023-05-09T10:25:01;100871.09;;;23.37;51.16
27613;BME280;15036;48.094;-1.690;2023-05-09T10:27:30;100875.06;;;22.29;52.45
27613;BME280;15036;48.094;-1.690;2023-05-09T10:30:07;100864.28;;;22.53;51.62
27613;BME280;15036;48.094;-1.690;2023-05-09T10:32:48;100861.03;;;23.21;50.96
27613;BME280;15036;48.094;-1.690;2023-05-09T10:35:17;100859.94;;;23.37;50.20
27613;BME280;15036;48.094;-1.690;2023-05-09T10:37:46;100856.47;;;23.85;49.40
27613;BME280;15036;48.094;-1.690;2023-05-09T10:40:12;100850.84;;;23.95;49.15
27613;BME280;15036;48.094;-1.690;2023-05-09T10:42:43;100844.47;;;23.85;49.63
27613;BME280;15036;48.094;-1.690;2023-05-09T10:45:12;100858.59;;;22.02;54.99
27613;BME280;15036;48.094;-1.690;2023-05-09T10:47:42;100843.19;;;22.62;55.32
27613;BME280;15036;48.094;-1.690;2023-05-09T10:50:10;100838.75;;;22.96;55.17
27613;BME280;15036;48.094;-1.690;2023-05-09T10:55:35;100830.66;;;23.40;53.58
27613;BME280;15036;48.094;-1.690;2023-05-09T10:58:17;100826.19;;;23.44;52.75
27613;BME280;15036;48.094;-1.690;2023-05-09T11:00:44;100825.91;;;23.50;52.70
27613;BME280;15036;48.094;-1.690;2023-05-09T11:03:11;100816.88;;;23.83;51.01
27613;BME280;15036;48.094;-1.690;2023-05-09T11:05:40;100817.00;;;23.38;51.86
27613;BME280;15036;48.094;-1.690;2023-05-09T11:08:26;100823.75;;;24.01;51.07
27613;BME280;15036;48.094;-1.690;2023-05-09T11:10:54;100833.66;;;23.68;50.36
27613;BME280;15036;48.094;-1.690;2023-05-09T11:13:21;100822.66;;;23.97;49.37
27613;BME280;15036;48.094;-1.690;2023-05-09T11:18:28;100827.31;;;24.22;49.53
27613;BME280;15036;48.094;-1.690;2023-05-09T11:20:54;100819.78;;;23.48;49.93
27613;BME280;15036;48.094;-1.690;2023-05-09T11:23:24;100819.69;;;23.73;49.63
27613;BME280;15036;48.094;-1.690;2023-05-09T11:25:51;100824.69;;;23.86;49.36
27613;BME280;15036;48.094;-1.690;2023-05-09T11:28:30;100813.88;;;24.29;48.97
27613;BME280;15036;48.094;-1.690;2023-05-09T11:31:12;100806.50;;;23.94;49.32
27613;BME280;15036;48.094;-1.690;2023-05-09T11:33:39;100810.34;;;24.62;48.60
27613;BME280;15036;48.094;-1.690;2023-05-09T11:41:29;100805.59;;;24.96;47.40
27613;BME280;15036;48.094;-1.690;2023-05-09T11:43:55;100792.31;;;24.83;46.01
27613;BME280;15036;48.094;-1.690;2023-05-09T11:46:21;100788.19;;;24.75;45.94
27613;BME280;15036;48.094;-1.690;2023-05-09T11:48:47;100774.56;;;24.64;45.35
27613;BME280;15036;48.094;-1.690;2023-05-09T11:51:17;100779.06;;;24.60;46.51
27613;BME280;15036;48.094;-1.690;2023-05-09T11:53:43;100782.66;;;24.99;46.45
27613;BME280;15036;48.094;-1.690;2023-05-09T11:56:12;100775.09;;;25.28;44.82
27613;BME280;15036;48.094;-1.690;2023-05-09T11:58:38;100767.25;;;25.30;45.22
27613;BME280;15036;48.094;-1.690;2023-05-09T12:01:04;100771.88;;;25.16;45.53
27613;BME280;15036;48.094;-1.690;2023-05-09T12:03:29;100773.53;;;25.69;44.80
27613;BME280;15036;48.094;-1.690;2023-05-09T12:05:55;100765.69;;;24.90;45.45
27613;BME280;15036;48.094;-1.690;2023-05-09T12:08:22;100771.63;;;25.13;44.83
27613;BME280;15036;48.094;-1.690;2023-05-09T12:10:48;100760.63;;;24.98;45.07
27613;BME280;15036;48.094;-1.690;2023-05-09T12:13:14;100746.38;;;24.60;44.89
27613;BME280;15036;48.094;-1.690;2023-05-09T12:15:39;100748.47;;;25.36;44.79
27613;BME280;15036;48.094;-1.690;2023-05-09T12:18:06;100747.38;;;25.60;45.03
27613;BME280;15036;48.094;-1.690;2023-05-09T12:20:46;100746.53;;;25.60;44.71
27613;BME280;15036;48.094;-1.690;2023-05-09T12:23:12;100731.81;;;26.34;43.84
27613;BME280;15036;48.094;-1.690;2023-05-09T12:25:47;100733.06;;;26.04;44.90
27613;BME280;15036;48.094;-1.690;2023-05-09T12:28:13;100749.03;;;25.61;46.59
27613;BME280;15036;48.094;-1.690;2023-05-09T12:30:39;100715.66;;;24.94;48.80
27613;BME280;15036;48.094;-1.690;2023-05-09T12:33:06;100710.28;;;25.26;49.80
27613;BME280;15036;48.094;-1.690;2023-05-09T12:35:37;100721.63;;;24.54;50.10
27613;BME280;15036;48.094;-1.690;2023-05-09T12:38:03;100734.84;;;24.77;50.86
27613;BME280;15036;48.094;-1.690;2023-05-09T12:40:29;100746.69;;;24.59;50.01
27613;BME280;15036;48.094;-1.690;2023-05-09T12:42:56;100728.69;;;23.97;50.15
27613;BME280;15036;48.094;-1.690;2023-05-09T12:45:25;100714.03;;;24.26;49.34
27613;BME280;15036;48.094;-1.690;2023-05-09T12:47:52;100709.25;;;23.82;50.56
27613;BME280;15036;48.094;-1.690;2023-05-09T12:50:17;100713.63;;;23.93;51.22
27613;BME280;15036;48.094;-1.690;2023-05-09T12:52:49;100726.75;;;24.42;50.15
27613;BME280;15036;48.094;-1.690;2023-05-09T12:55:15;100738.16;;;24.06;51.35
27613;BME280;15036;48.094;-1.690;2023-05-09T12:57:56;100748.38;;;24.60;50.69